Time;durP1;ratioP1;P1;durP2;ratioP2;P2;SDS_P1;SDS_P2;PMS_P1;PMS_P2;Temp;Humidity;BMP_temperature;BMP_pressure;BME280_temperature;BME280_humidity;BME280_pressure;Samples;Min_cycle;Max_cycle;Signal;HPM_P1;HPM_P2
2022/04/07 00:00:54;;;;;;;7.90;7.10;;;;;;;;;;5072871;28;20231;-60
2022/04/07 00:03:20;;;;;;;7.27;6.47;;;;;;;;;;5072975;28;20223;-60
2022/04/07 00:05:46;;;;;;;6.73;6.13;;;;;;;;;;5072675;28;20254;-60
2022/04/07 00:08:12;;;;;;;8.47;6.30;;;;;;;;;;5072940;28;20591;-61
2022/04/07 00:10:38;;;;;;;7.33;6.60;;;;;;;;;;5072681;28;20200;-60
2022/04/07 00:13:06;;;;;;;8.50;6.27;;;;;;;;;;5072954;28;20199;-60
2022/04/07 00:15:32;;;;;;;6.40;5.80;;;;;;;;;;5072839;28;20194;-60
2022/04/07 00:17:58;;;;;;;8.10;6.30;;;;;;;;;;5072973;28;20534;-60
2022/04/07 00:20:24;;;;;;;6.43;5.87;;;;;;;;;;5072652;28;20279;-60
2022/04/07 00:22:50;;;;;;;7.13;6.00;;;;;;;;;;5072514;28;20204;-59
2022/04/07 00:25:16;;;;;;;6.97;5.70;;;;;;;;;;5072476;28;20251;-60
2022/04/07 00:27:42;;;;;;;9.27;6.03;;;;;;;;;;5072468;28;20685;-59
2022/04/07 00:30:13;;;;;;;7.10;6.27;;;;;;;;;;5072535;28;20195;-59
2022/04/07 00:32:42;;;;;;;7.07;6.37;;;;;;;;;;5072639;28;20204;-59
2022/04/07 00:35:08;;;;;;;7.17;6.47;;;;;;;;;;5072460;28;20282;-59
2022/04/07 00:37:34;;;;;;;9.20;7.53;;;;;;;;;;5072231;28;20622;-60
2022/04/07 00:40:00;;;;;;;8.60;6.70;;;;;;;;;;5071613;28;20222;-60
2022/04/07 00:42:27;;;;;;;7.93;7.23;;;;;;;;;;5072271;28;20600;-61
2022/04/07 00:44:53;;;;;;;9.23;6.80;;;;;;;;;;5072262;28;20657;-60
2022/04/07 00:47:22;;;;;;;11.57;7.40;;;;;;;;;;5072209;28;20298;-60
2022/04/07 00:49:48;;;;;;;8.70;7.23;;;;;;;;;;5072145;28;20227;-60
2022/04/07 00:52:14;;;;;;;7.90;7.10;;;;;;;;;;5072239;28;20230;-60
2022/04/07 00:54:40;;;;;;;9.83;6.97;;;;;;;;;;5071986;28;20199;-60
2022/04/07 00:57:07;;;;;;;7.53;6.83;;;;;;;;;;5072110;28;20681;-60
2022/04/07 00:59:34;;;;;;;8.70;6.40;;;;;;;;;;5071785;28;20199;-60
2022/04/07 01:02:01;;;;;;;7.33;6.73;;;;;;;;;;5072166;28;20206;-60
2022/04/07 01:04:28;;;;;;;8.47;6.20;;;;;;;;;;5071861;28;20192;-60
2022/04/07 01:06:54;;;;;;;6.83;6.13;;;;;;;;;;5071753;28;20276;-60
2022/04/07 01:09:20;;;;;;;7.70;5.90;;;;;;;;;;5071899;28;20199;-60
2022/04/07 01:11:46;;;;;;;6.17;5.67;;;;;;;;;;5071881;28;20715;-60
2022/04/07 01:14:12;;;;;;;6.23;5.63;;;;;;;;;;5072025;28;20203;-61
2022/04/07 01:16:38;;;;;;;8.13;5.83;;;;;;;;;;5071728;28;20192;-61
2022/04/07 01:19:05;;;;;;;7.40;5.57;;;;;;;;;;5071785;28;20287;-61
2022/04/07 01:21:32;;;;;;;6.10;5.50;;;;;;;;;;5071760;28;20569;-61
2022/04/07 01:24:02;;;;;;;6.30;5.50;;;;;;;;;;5071623;28;20640;-61
2022/04/07 01:26:31;;;;;;;5.83;5.33;;;;;;;;;;5071892;28;20251;-61
2022/04/07 01:28:56;;;;;;;7.70;5.50;;;;;;;;;;5071560;28;20203;-61
2022/04/07 01:31:22;;;;;;;6.57;5.73;;;;;;;;;;5072191;28;20494;-61
2022/04/07 01:33:49;;;;;;;6.87;5.70;;;;;;;;;;5071619;28;20200;-61
2022/04/07 01:36:17;;;;;;;6.27;5.37;;;;;;;;;;5071896;28;20202;-61
2022/04/07 01:38:43;;;;;;;7.27;5.40;;;;;;;;;;5071292;28;20200;-61
2022/04/07 01:41:09;;;;;;;5.87;5.37;;;;;;;;;;5071638;28;20195;-61
2022/04/07 01:43:38;;;;;;;5.77;5.17;;;;;;;;;;5071546;28;20196;-60
2022/04/07 01:46:05;;;;;;;5.50;5.00;;;;;;;;;;5071571;28;20333;-61
2022/04/07 01:48:31;;;;;;;6.23;5.73;;;;;;;;;;5071503;28;20207;-61
2022/04/07 01:50:57;;;;;;;7.53;5.00;;;;;;;;;;5073035;28;20679;-61
2022/04/07 01:53:24;;;;;;;5.60;5.10;;;;;;;;;;5075490;28;20199;-61
2022/04/07 01:55:51;;;;;;;7.67;5.57;;;;;;;;;;5075453;28;20196;-61
2022/04/07 01:58:18;;;;;;;5.90;5.17;;;;;;;;;;5075453;28;20587;-61
2022/04/07 02:00:45;;;;;;;5.40;4.83;;;;;;;;;;5075247;28;20285;-61
2022/04/07 02:03:11;;;;;;;5.53;5.00;;;;;;;;;;5075510;28;20230;-61
2022/04/07 02:05:37;;;;;;;6.03;4.90;;;;;;;;;;5075376;28;20598;-61
2022/04/07 02:08:04;;;;;;;5.40;4.90;;;;;;;;;;5075280;28;20253;-61
2022/04/07 02:10:32;;;;;;;5.70;4.70;;;;;;;;;;5075121;28;20245;-61
2022/04/07 02:12:58;;;;;;;5.83;4.40;;;;;;;;;;5075421;28;20222;-61
2022/04/07 02:15:25;;;;;;;4.80;4.27;;;;;;;;;;5075107;28;20278;-64
2022/04/07 02:17:52;;;;;;;5.43;4.10;;;;;;;;;;5075010;28;20256;-59
2022/04/07 02:20:19;;;;;;;4.47;4.03;;;;;;;;;;5075242;28;20199;-59
2022/04/07 02:22:45;;;;;;;4.13;3.83;;;;;;;;;;5074904;28;20654;-59
2022/04/07 02:25:11;;;;;;;4.23;3.77;;;;;;;;;;5075098;28;20277;-59
2022/04/07 02:27:37;;;;;;;4.57;4.17;;;;;;;;;;5074771;28;20252;-60
2022/04/07 02:30:05;;;;;;;4.50;4.10;;;;;;;;;;5074961;28;20540;-60
2022/04/07 02:32:31;;;;;;;4.00;3.70;;;;;;;;;;5074825;28;20203;-60
2022/04/07 02:34:59;;;;;;;3.80;3.50;;;;;;;;;;5074802;28;20281;-63
2022/04/07 02:37:25;;;;;;;3.60;3.30;;;;;;;;;;5074693;28;20207;-60
2022/04/07 02:39:51;;;;;;;3.53;3.10;;;;;;;;;;5074585;28;20195;-60
2022/04/07 02:42:17;;;;;;;3.70;3.40;;;;;;;;;;5074991;28;20191;-61
2022/04/07 02:44:43;;;;;;;4.33;3.53;;;;;;;;;;5074556;28;20196;-61
2022/04/07 02:47:09;;;;;;;3.90;3.50;;;;;;;;;;5074609;28;20206;-61
2022/04/07 02:49:39;;;;;;;5.23;3.60;;;;;;;;;;5074271;28;20204;-60
2022/04/07 02:52:07;;;;;;;3.93;3.60;;;;;;;;;;5074400;28;20199;-61
2022/04/07 02:54:33;;;;;;;4.70;4.10;;;;;;;;;;5074223;28;20203;-61
2022/04/07 02:56:59;;;;;;;4.30;3.80;;;;;;;;;;5074390;28;20192;-61
2022/04/07 02:59:25;;;;;;;3.87;3.47;;;;;;;;;;5074163;28;20253;-60
2022/04/07 03:01:53;;;;;;;3.97;3.67;;;;;;;;;;5073726;28;20195;-61
2022/04/07 03:04:18;;;;;;;4.00;3.60;;;;;;;;;;5073941;28;20203;-61
2022/04/07 03:06:44;;;;;;;4.43;4.03;;;;;;;;;;5074033;28;20223;-61
2022/04/07 03:09:12;;;;;;;4.97;3.83;;;;;;;;;;5074145;28;20665;-61
2022/04/07 03:11:38;;;;;;;4.23;3.83;;;;;;;;;;5073873;28;20206;-61
2022/04/07 03:14:04;;;;;;;4.80;3.60;;;;;;;;;;5073954;28;20199;-62
2022/04/07 03:16:30;;;;;;;4.60;4.20;;;;;;;;;;5074035;28;20286;-61
2022/04/07 03:18:56;;;;;;;4.87;4.43;;;;;;;;;;5074042;28;20225;-62
2022/04/07 03:21:22;;;;;;;4.50;4.10;;;;;;;;;;5073810;28;20540;-62
2022/04/07 03:23:48;;;;;;;4.40;4.00;;;;;;;;;;5073741;28;20250;-60
2022/04/07 03:26:15;;;;;;;4.10;3.70;;;;;;;;;;5074012;28;20259;-61
2022/04/07 03:28:41;;;;;;;4.47;4.17;;;;;;;;;;5073691;28;20210;-61
2022/04/07 03:31:07;;;;;;;4.30;3.90;;;;;;;;;;5073627;28;20199;-61
2022/04/07 03:33:33;;;;;;;4.23;3.83;;;;;;;;;;5073550;28;20204;-61
2022/04/07 03:35:59;;;;;;;6.10;4.30;;;;;;;;;;5073672;28;20507;-61
2022/04/07 03:38:25;;;;;;;4.20;3.87;;;;;;;;;;5073460;28;20253;-60
2022/04/07 03:40:51;;;;;;;4.10;3.80;;;;;;;;;;5073386;28;20200;-61
2022/04/07 03:43:18;;;;;;;4.90;4.40;;;;;;;;;;5073466;28;20200;-61
2022/04/07 03:45:44;;;;;;;5.00;4.50;;;;;;;;;;5073323;28;20212;-61
2022/04/07 03:48:10;;;;;;;4.37;3.97;;;;;;;;;;5073341;28;20272;-61
2022/04/07 03:50:36;;;;;;;4.30;4.00;;;;;;;;;;5073172;28;20195;-61
2022/04/07 03:53:02;;;;;;;5.10;4.60;;;;;;;;;;5073136;28;20270;-61
2022/04/07 03:55:28;;;;;;;6.63;4.40;;;;;;;;;;5073185;28;20242;-61
2022/04/07 03:57:54;;;;;;;4.97;4.30;;;;;;;;;;5073260;28;20207;-61
2022/04/07 04:00:26;;;;;;;4.97;3.90;;;;;;;;;;5072904;28;20235;-60
2022/04/07 04:02:52;;;;;;;5.33;4.30;;;;;;;;;;5072928;28;20469;-61
2022/04/07 04:05:18;;;;;;;8.63;4.10;;;;;;;;;;5072912;28;20785;-61
2022/04/07 04:07:44;;;;;;;5.17;3.93;;;;;;;;;;5072977;28;20289;-61
2022/04/07 04:10:10;;;;;;;5.23;3.53;;;;;;;;;;5072889;28;20286;-61
2022/04/07 04:12:36;;;;;;;4.13;3.67;;;;;;;;;;5072742;28;20199;-61
2022/04/07 04:15:02;;;;;;;8.33;3.90;;;;;;;;;;5072659;28;20196;-61
2022/04/07 04:17:30;;;;;;;5.00;3.73;;;;;;;;;;5072742;28;20207;-60
2022/04/07 04:19:56;;;;;;;5.93;3.70;;;;;;;;;;5072878;28;20276;-60
2022/04/07 04:22:22;;;;;;;4.00;3.20;;;;;;;;;;5072697;28;20299;-61
2022/04/07 04:24:48;;;;;;;4.00;3.43;;;;;;;;;;5072313;28;20587;-61
2022/04/07 04:27:14;;;;;;;3.80;3.43;;;;;;;;;;5072769;28;20200;-60
2022/04/07 04:29:40;;;;;;;5.73;3.97;;;;;;;;;;5072431;28;20191;-61
2022/04/07 04:32:07;;;;;;;3.33;3.03;;;;;;;;;;5072545;28;20195;-62
2022/04/07 04:34:34;;;;;;;7.77;3.80;;;;;;;;;;5072481;28;20237;-61
2022/04/07 04:37:00;;;;;;;5.43;3.33;;;;;;;;;;5072478;28;20257;-61
2022/04/07 04:39:26;;;;;;;3.33;3.03;;;;;;;;;;5072269;28;20199;-61
2022/04/07 04:41:52;;;;;;;4.40;3.20;;;;;;;;;;5072289;28;20226;-61
2022/04/07 04:44:18;;;;;;;4.73;3.40;;;;;;;;;;5072291;28;20607;-60
2022/04/07 04:46:44;;;;;;;4.47;2.87;;;;;;;;;;5072166;28;20273;-61
2022/04/07 04:49:10;;;;;;;4.17;2.67;;;;;;;;;;5072313;28;20562;-61
2022/04/07 04:51:37;;;;;;;5.60;2.50;;;;;;;;;;5072057;28;20203;-61
2022/04/07 04:54:03;;;;;;;4.47;2.60;;;;;;;;;;5072002;28;20211;-61
2022/04/07 04:56:29;;;;;;;4.60;2.50;;;;;;;;;;5072171;28;20200;-61
2022/04/07 04:58:57;;;;;;;4.97;2.67;;;;;;;;;;5072225;28;20206;-61
2022/04/07 05:01:23;;;;;;;5.40;2.63;;;;;;;;;;5071916;28;20296;-60
2022/04/07 05:03:49;;;;;;;3.97;2.70;;;;;;;;;;5071846;28;20196;-61
2022/04/07 05:06:15;;;;;;;3.67;2.67;;;;;;;;;;5071855;28;20693;-61
2022/04/07 05:08:42;;;;;;;3.90;2.03;;;;;;;;;;5071591;28;20202;-61
2022/04/07 05:11:08;;;;;;;2.80;2.07;;;;;;;;;;5071885;28;20671;-60
2022/04/07 05:13:34;;;;;;;3.67;2.20;;;;;;;;;;5071823;28;20622;-61
2022/04/07 05:16:00;;;;;;;2.37;1.80;;;;;;;;;;5071704;28;20219;-60
2022/04/07 05:18:26;;;;;;;5.73;2.87;;;;;;;;;;5071593;28;20290;-59
2022/04/07 05:20:52;;;;;;;5.23;3.40;;;;;;;;;;5071643;28;20594;-58
2022/04/07 05:23:18;;;;;;;4.37;2.60;;;;;;;;;;5070235;28;20188;-59
2022/04/07 05:25:46;;;;;;;3.57;2.43;;;;;;;;;;5071000;28;20219;-59
2022/04/07 05:28:12;;;;;;;7.70;2.57;;;;;;;;;;5071959;28;20226;-60
2022/04/07 05:30:38;;;;;;;3.00;2.30;;;;;;;;;;5071613;28;20231;-60
2022/04/07 05:33:04;;;;;;;2.80;1.80;;;;;;;;;;5071329;28;20208;-60
2022/04/07 05:35:30;;;;;;;3.07;2.00;;;;;;;;;;5071816;28;20222;-60
2022/04/07 05:37:59;;;;;;;5.10;2.20;;;;;;;;;;5071621;28;20223;-62
2022/04/07 05:40:26;;;;;;;4.67;2.37;;;;;;;;;;5071328;28;20199;-60
2022/04/07 05:42:53;;;;;;;3.93;2.10;;;;;;;;;;5071274;28;20199;-60
2022/04/07 05:45:19;;;;;;;3.40;2.07;;;;;;;;;;5071476;28;20673;-60
2022/04/07 05:47:45;;;;;;;3.43;2.47;;;;;;;;;;5071479;28;20203;-60
2022/04/07 05:50:11;;;;;;;3.07;2.20;;;;;;;;;;5071466;28;20669;-60
2022/04/07 05:52:38;;;;;;;3.60;1.87;;;;;;;;;;5071377;28;20248;-60
2022/04/07 05:55:04;;;;;;;3.13;2.13;;;;;;;;;;5071021;28;20749;-61
2022/04/07 05:57:30;;;;;;;4.27;2.10;;;;;;;;;;5071383;28;20246;-60
2022/04/07 06:00:02;;;;;;;3.47;2.13;;;;;;;;;;5071304;28;20270;-60
2022/04/07 06:02:28;;;;;;;3.57;2.23;;;;;;;;;;5071203;28;20211;-60
2022/04/07 06:04:54;;;;;;;3.33;2.00;;;;;;;;;;5071016;28;20199;-60
2022/04/07 06:07:20;;;;;;;3.17;2.00;;;;;;;;;;5071090;28;20223;-59
2022/04/07 06:09:46;;;;;;;3.43;2.03;;;;;;;;;;5071113;28;20570;-61
2022/04/07 06:12:12;;;;;;;2.53;1.80;;;;;;;;;;5071562;28;20195;-61
2022/04/07 06:14:38;;;;;;;4.17;1.80;;;;;;;;;;5071311;28;20666;-61
2022/04/07 06:17:05;;;;;;;10.83;2.43;;;;;;;;;;5071047;28;20206;-61
2022/04/07 06:19:31;;;;;;;3.87;2.13;;;;;;;;;;5070914;28;20619;-60
2022/04/07 06:21:57;;;;;;;6.53;2.10;;;;;;;;;;5071163;28;20195;-60
2022/04/07 06:24:23;;;;;;;3.47;1.97;;;;;;;;;;5070994;28;20220;-61
2022/04/07 06:26:49;;;;;;;3.93;1.80;;;;;;;;;;5071114;28;20836;-62
2022/04/07 06:29:15;;;;;;;4.13;1.90;;;;;;;;;;5071118;28;20211;-61
2022/04/07 06:31:41;;;;;;;4.20;1.97;;;;;;;;;;5070902;28;20204;-61
2022/04/07 06:34:09;;;;;;;3.80;2.00;;;;;;;;;;5071080;28;20334;-61
2022/04/07 06:36:35;;;;;;;4.73;2.10;;;;;;;;;;5071108;28;20560;-61
2022/04/07 06:39:01;;;;;;;4.43;2.03;;;;;;;;;;5073812;28;20680;-61
2022/04/07 06:41:27;;;;;;;4.40;1.60;;;;;;;;;;5074496;28;20289;-63
2022/04/07 06:43:53;;;;;;;5.53;2.10;;;;;;;;;;5074328;28;20306;-59
2022/04/07 06:46:19;;;;;;;4.57;1.70;;;;;;;;;;5074471;28;20709;-56
2022/04/07 06:48:45;;;;;;;2.73;1.70;;;;;;;;;;5074492;28;20257;-63
2022/04/07 06:51:14;;;;;;;5.63;2.20;;;;;;;;;;5074526;28;20200;-62
2022/04/07 06:53:40;;;;;;;3.70;1.90;;;;;;;;;;5069946;28;20208;-60
2022/04/07 06:56:07;;;;;;;3.47;1.80;;;;;;;;;;5070770;28;20200;-60
2022/04/07 06:58:33;;;;;;;3.70;1.60;;;;;;;;;;5074217;28;20214;-60
2022/04/07 07:00:59;;;;;;;4.27;2.10;;;;;;;;;;5074057;28;20243;-60
2022/04/07 07:03:27;;;;;;;5.90;1.77;;;;;;;;;;5074004;28;20199;-62
2022/04/07 07:05:58;;;;;;;4.43;1.60;;;;;;;;;;5073710;28;20233;-61
2022/04/07 07:08:25;;;;;;;3.03;1.80;;;;;;;;;;5073962;28;20207;-59
2022/04/07 07:10:52;;;;;;;3.80;1.80;;;;;;;;;;5073748;28;20222;-61
2022/04/07 07:13:20;;;;;;;2.47;1.60;;;;;;;;;;5073931;28;20602;-61
2022/04/07 07:15:46;;;;;;;4.33;1.70;;;;;;;;;;5073567;28;20275;-60
2022/04/07 07:18:12;;;;;;;2.27;1.43;;;;;;;;;;5073837;28;20200;-62
2022/04/07 07:20:38;;;;;;;3.47;1.60;;;;;;;;;;5073327;28;20424;-59
2022/04/07 07:23:04;;;;;;;2.93;1.40;;;;;;;;;;5073843;28;20196;-61
2022/04/07 07:25:32;;;;;;;4.50;1.50;;;;;;;;;;5073715;28;20311;-63
2022/04/07 07:27:58;;;;;;;2.87;1.57;;;;;;;;;;5073468;28;20208;-62
2022/04/07 07:30:25;;;;;;;2.33;1.60;;;;;;;;;;5073634;28;20191;-62
2022/04/07 07:32:51;;;;;;;2.60;1.50;;;;;;;;;;5073141;28;20726;-63
2022/04/07 07:35:18;;;;;;;1.63;1.53;;;;;;;;;;5073420;28;20202;-60
2022/04/07 07:37:48;;;;;;;2.37;1.93;;;;;;;;;;5073468;28;20533;-62
2022/04/07 07:40:15;;;;;;;1.63;1.30;;;;;;;;;;5073315;28;20627;-63
2022/04/07 07:42:42;;;;;;;2.30;1.57;;;;;;;;;;5073075;28;20697;-64
2022/04/07 07:45:08;;;;;;;3.77;1.40;;;;;;;;;;5073128;28;20553;-65
2022/04/07 07:47:35;;;;;;;1.87;1.50;;;;;;;;;;5073004;28;20207;-62
2022/04/07 07:50:01;;;;;;;1.30;1.20;;;;;;;;;;5072743;28;20227;-63
2022/04/07 07:52:27;;;;;;;1.30;1.20;;;;;;;;;;5073100;28;20238;-64
2022/04/07 07:54:53;;;;;;;1.97;1.50;;;;;;;;;;5072938;28;20225;-64
2022/04/07 07:57:20;;;;;;;1.67;1.53;;;;;;;;;;5073006;28;20187;-64
2022/04/07 07:59:47;;;;;;;1.67;1.57;;;;;;;;;;5072712;28;20227;-62
2022/04/07 08:02:13;;;;;;;1.70;1.50;;;;;;;;;;5072996;28;20294;-62
2022/04/07 08:04:39;;;;;;;2.63;1.93;;;;;;;;;;5072850;28;20666;-61
2022/04/07 08:07:05;;;;;;;2.50;1.40;;;;;;;;;;5072651;28;20226;-63
2022/04/07 08:09:31;;;;;;;2.80;1.43;;;;;;;;;;5072685;28;20230;-63
2022/04/07 08:11:57;;;;;;;1.70;1.60;;;;;;;;;;5072600;28;20195;-62
2022/04/07 08:14:23;;;;;;;1.83;1.60;;;;;;;;;;5072711;28;20636;-63
2022/04/07 08:16:50;;;;;;;1.80;1.43;;;;;;;;;;5072362;28;20192;-64
2022/04/07 08:19:17;;;;;;;1.60;1.50;;;;;;;;;;5072644;28;20219;-64
2022/04/07 08:21:43;;;;;;;2.30;1.63;;;;;;;;;;5072550;28;20206;-62
2022/04/07 08:24:09;;;;;;;1.43;1.30;;;;;;;;;;5072197;28;20219;-64
2022/04/07 08:26:35;;;;;;;2.63;1.80;;;;;;;;;;5072297;28;20232;-63
2022/04/07 08:29:01;;;;;;;2.47;1.90;;;;;;;;;;5072297;28;20216;-60
2022/04/07 08:31:27;;;;;;;2.17;1.40;;;;;;;;;;5072348;28;20240;-56
2022/04/07 08:33:54;;;;;;;2.20;1.40;;;;;;;;;;5072067;28;20226;-60
2022/04/07 08:36:20;;;;;;;1.60;1.50;;;;;;;;;;5071788;28;20196;-63
2022/04/07 08:38:46;;;;;;;2.90;1.53;;;;;;;;;;5072060;28;20570;-62
2022/04/07 08:41:12;;;;;;;1.97;1.43;;;;;;;;;;5072260;28;20198;-66
2022/04/07 08:43:39;;;;;;;2.03;1.50;;;;;;;;;;5070336;28;20704;-65
2022/04/07 08:46:07;;;;;;;2.60;1.70;;;;;;;;;;5071996;28;20234;-63
2022/04/07 08:48:36;;;;;;;2.47;1.47;;;;;;;;;;5072309;28;20290;-61
2022/04/07 08:51:04;;;;;;;1.70;1.60;;;;;;;;;;5072176;28;20533;-61
2022/04/07 08:53:31;;;;;;;1.70;1.60;;;;;;;;;;5068686;28;20282;-62
2022/04/07 08:55:59;;;;;;;1.53;1.43;;;;;;;;;;5072048;28;20237;-61
2022/04/07 08:58:25;;;;;;;2.80;1.60;;;;;;;;;;5071904;28;20662;-62
2022/04/07 09:00:51;;;;;;;1.73;1.63;;;;;;;;;;5071053;28;20552;-62
2022/04/07 09:03:18;;;;;;;2.43;1.50;;;;;;;;;;5072057;28;20249;-63
2022/04/07 09:05:51;;;;;;;5.33;2.00;;;;;;;;;;5071921;28;20211;-63
2022/04/07 09:08:19;;;;;;;1.30;1.20;;;;;;;;;;5071923;28;20715;-61
2022/04/07 09:10:52;;;;;;;0.83;0.83;;;;;;;;;;5071566;28;20203;-61
2022/04/07 09:13:18;;;;;;;4.33;3.93;;;;;;;;;;5071798;28;20295;-63
2022/04/07 09:15:45;;;;;;;59.37;53.10;;;;;;;;;;5071816;28;20278;-62
2022/04/07 09:18:11;;;;;;;61.60;51.20;;;;;;;;;;5071812;28;20256;-61
2022/04/07 09:20:42;;;;;;;5.60;3.90;;;;;;;;;;5071254;28;20199;-60
2022/04/07 09:23:11;;;;;;;1.60;1.50;;;;;;;;;;5071432;28;20701;-60
2022/04/07 09:25:41;;;;;;;18.17;16.57;;;;;;;;;;5071192;28;20288;-61
2022/04/07 09:28:11;;;;;;;1.10;1.10;;;;;;;;;;5071199;28;20298;-60
2022/04/07 09:30:37;;;;;;;0.87;0.87;;;;;;;;;;5071399;28;20199;-60
2022/04/07 09:33:03;;;;;;;4.13;3.77;;;;;;;;;;5071373;28;20442;-62
2022/04/07 09:35:29;;;;;;;3.50;1.63;;;;;;;;;;5071540;28;20464;-61
2022/04/07 09:38:01;;;;;;;1.77;1.10;;;;;;;;;;5071202;28;20260;-60
2022/04/07 09:40:28;;;;;;;2.93;2.43;;;;;;;;;;5071593;28;20654;-61
2022/04/07 09:42:58;;;;;;;6.07;4.40;;;;;;;;;;5071405;28;20440;-60
2022/04/07 09:45:25;;;;;;;22.60;16.13;;;;;;;;;;5071389;28;20676;-60
2022/04/07 09:47:51;;;;;;;2.40;1.10;;;;;;;;;;5071341;28;20434;-59
2022/04/07 09:50:22;;;;;;;18.27;14.40;;;;;;;;;;5071522;28;20226;-61
2022/04/07 09:52:55;;;;;;;9.63;7.63;;;;;;;;;;5071016;28;20219;-59
2022/04/07 09:55:21;;;;;;;6.70;5.07;;;;;;;;;;5071296;28;20479;-61
2022/04/07 09:57:47;;;;;;;1.50;1.20;;;;;;;;;;5071168;28;20438;-61
2022/04/07 10:00:15;;;;;;;13.20;8.30;;;;;;;;;;5071250;28;20473;-61
2022/04/07 10:02:41;;;;;;;3.27;2.83;;;;;;;;;;5071461;28;20449;-60
2022/04/07 10:05:07;;;;;;;2.37;2.17;;;;;;;;;;5071570;28;20202;-61
2022/04/07 10:07:34;;;;;;;4.77;4.33;;;;;;;;;;5071302;28;20251;-62
2022/04/07 10:10:01;;;;;;;2.27;1.20;;;;;;;;;;5071395;28;20278;-62
2022/04/07 10:12:28;;;;;;;10.67;9.63;;;;;;;;;;5073427;28;20446;-61
2022/04/07 10:14:57;;;;;;;5.97;5.03;;;;;;;;;;5074893;28;20458;-61
2022/04/07 10:17:24;;;;;;;2.03;1.40;;;;;;;;;;5074906;28;20438;-61
2022/04/07 10:19:53;;;;;;;3.10;2.40;;;;;;;;;;5074817;28;20487;-59
2022/04/07 10:22:41;;;;;;;2.77;1.60;;;;;;;;;;5074808;28;20445;-60
2022/04/07 10:25:08;;;;;;;2.93;2.70;;;;;;;;;;5074876;28;20461;-60
2022/04/07 10:27:37;;;;;;;2.10;1.90;;;;;;;;;;5074603;28;20473;-61
2022/04/07 10:30:05;;;;;;;1.63;1.30;;;;;;;;;;5074686;28;20437;-59
2022/04/07 10:32:42;;;;;;;10.70;7.83;;;;;;;;;;5074820;28;20200;-59
2022/04/07 10:35:08;;;;;;;2.00;1.90;;;;;;;;;;5074512;28;20440;-61
2022/04/07 10:37:41;;;;;;;13.67;8.83;;;;;;;;;;5074159;28;20440;-62
2022/04/07 10:40:26;;;;;;;16.37;9.87;;;;;;;;;;5074445;28;20833;-59
2022/04/07 10:43:06;;;;;;;10.70;7.13;;;;;;;;;;5072734;28;20426;-61
2022/04/07 10:45:32;;;;;;;327.27;165.23;;;;;;;;;;5072530;28;20437;-61
2022/04/07 10:48:13;;;;;;;141.10;72.10;;;;;;;;;;5072317;28;20560;-60
2022/04/07 10:50:45;;;;;;;2.60;1.70;;;;;;;;;;5072417;28;20930;-60
2022/04/07 10:53:19;;;;;;;0.70;0.70;;;;;;;;;;5073005;28;20506;-59
2022/04/07 10:55:53;;;;;;;1.87;1.67;;;;;;;;;;5072889;28;20429;-61
2022/04/07 10:58:20;;;;;;;1.73;0.73;;;;;;;;;;5072942;28;20681;-61
2022/04/07 11:00:46;;;;;;;1.73;1.00;;;;;;;;;;5073907;28;20469;-61
2022/04/07 11:03:15;;;;;;;1.03;1.00;;;;;;;;;;5074193;28;20219;-61
2022/04/07 11:05:52;;;;;;;0.90;0.90;;;;;;;;;;5073705;28;20919;-61
2022/04/07 11:08:21;;;;;;;1.43;0.80;;;;;;;;;;5073738;28;20277;-62
2022/04/07 11:10:48;;;;;;;1.73;1.60;;;;;;;;;;5073770;28;20202;-62
2022/04/07 11:13:14;;;;;;;0.70;0.70;;;;;;;;;;5074206;28;20208;-62
2022/04/07 11:16:01;;;;;;;0.70;0.70;;;;;;;;;;5073975;28;20210;-62
2022/04/07 11:18:39;;;;;;;0.90;0.90;;;;;;;;;;5068783;28;20210;-62
2022/04/07 11:21:10;;;;;;;0.77;0.77;;;;;;;;;;5074101;28;20653;-61
2022/04/07 11:23:41;;;;;;;0.80;0.80;;;;;;;;;;5073178;28;20250;-61
2022/04/07 11:26:11;;;;;;;1.70;1.13;;;;;;;;;;5073970;28;20239;-61
2022/04/07 11:28:37;;;;;;;0.73;0.73;;;;;;;;;;5073656;28;20192;-60
2022/04/07 11:31:04;;;;;;;0.60;0.60;;;;;;;;;;5073706;28;20204;-62
2022/04/07 11:33:31;;;;;;;0.70;0.70;;;;;;;;;;5073855;28;20195;-60
2022/04/07 11:36:27;;;;;;;0.83;0.70;;;;;;;;;;5073748;28;20278;-61
2022/04/07 11:38:54;;;;;;;0.80;0.80;;;;;;;;;;5073172;28;20199;-60
2022/04/07 11:41:20;;;;;;;2.77;1.20;;;;;;;;;;5073676;28;20199;-60
2022/04/07 11:43:47;;;;;;;0.97;0.97;;;;;;;;;;5073514;28;20211;-60
2022/04/07 11:46:15;;;;;;;2.03;0.90;;;;;;;;;;5073741;28;20249;-60
2022/04/07 11:48:41;;;;;;;4.00;2.73;;;;;;;;;;5073371;28;20191;-60
2022/04/07 11:51:14;;;;;;;1.40;1.30;;;;;;;;;;5073442;28;20207;-60
2022/04/07 11:53:40;;;;;;;2.10;1.53;;;;;;;;;;5073103;28;20196;-58
2022/04/07 11:56:17;;;;;;;2.80;1.90;;;;;;;;;;5073374;28;20206;-59
2022/04/07 11:58:44;;;;;;;1.80;1.07;;;;;;;;;;5073340;28;20206;-61
2022/04/07 12:01:11;;;;;;;10.07;7.10;;;;;;;;;;5073143;28;20254;-61
2022/04/07 12:03:38;;;;;;;9.00;5.70;;;;;;;;;;5073052;28;20750;-62
2022/04/07 12:06:04;;;;;;;4.73;3.63;;;;;;;;;;5072735;28;20226;-61
2022/04/07 12:08:30;;;;;;;2.53;1.37;;;;;;;;;;5073165;28;20199;-60
2022/04/07 12:10:56;;;;;;;3.37;2.10;;;;;;;;;;5073097;28;20203;-59
2022/04/07 12:13:24;;;;;;;2.30;1.10;;;;;;;;;;5072896;28;20286;-61
2022/04/07 12:15:50;;;;;;;4.63;2.57;;;;;;;;;;5072783;28;20221;-60
2022/04/07 12:18:25;;;;;;;1.27;1.00;;;;;;;;;;5073072;28;20256;-60
2022/04/07 12:20:58;;;;;;;3.33;2.97;;;;;;;;;;5072799;28;20198;-60
2022/04/07 12:23:26;;;;;;;2.23;1.20;;;;;;;;;;5072557;28;20286;-61
2022/04/07 12:25:57;;;;;;;2.73;2.23;;;;;;;;;;5072709;28;20224;-60
2022/04/07 12:28:31;;;;;;;1.70;1.30;;;;;;;;;;5072782;28;20209;-59
2022/04/07 12:30:57;;;;;;;4.83;1.53;;;;;;;;;;5072568;28;20216;-59
2022/04/07 12:33:43;;;;;;;1.30;1.20;;;;;;;;;;5072707;28;20666;-60
2022/04/07 12:36:09;;;;;;;2.80;1.50;;;;;;;;;;5072581;28;20553;-59
2022/04/07 12:38:36;;;;;;;2.13;1.30;;;;;;;;;;5072482;28;20248;-60
2022/04/07 12:41:13;;;;;;;3.37;1.50;;;;;;;;;;5072568;28;20198;-62
2022/04/07 12:43:43;;;;;;;5.83;1.70;;;;;;;;;;5072424;28;20203;-60
2022/04/07 12:46:09;;;;;;;4.37;1.30;;;;;;;;;;5072249;28;20284;-61
2022/04/07 12:48:35;;;;;;;2.73;1.47;;;;;;;;;;5072421;28;20200;-60
2022/04/07 12:51:21;;;;;;;2.40;1.40;;;;;;;;;;5072416;28;20203;-60
2022/04/07 12:53:47;;;;;;;11.40;6.87;;;;;;;;;;5072094;28;20203;-62
2022/04/07 12:56:27;;;;;;;2.73;1.30;;;;;;;;;;5072437;28;20191;-62
2022/04/07 12:59:02;;;;;;;2.60;1.43;;;;;;;;;;5072084;28;20219;-62
2022/04/07 13:01:29;;;;;;;2.93;1.20;;;;;;;;;;5071980;28;20257;-59
2022/04/07 13:03:56;;;;;;;20.20;13.20;;;;;;;;;;5072080;28;20229;-61
2022/04/07 13:06:23;;;;;;;4.33;1.50;;;;;;;;;;5071774;28;20231;-59
2022/04/07 13:08:50;;;;;;;2.73;1.50;;;;;;;;;;5071945;28;20539;-60
2022/04/07 13:11:31;;;;;;;6.87;3.17;;;;;;;;;;5071816;28;20203;-60
2022/04/07 13:13:57;;;;;;;1.93;1.30;;;;;;;;;;5071840;28;20266;-59
2022/04/07 13:16:24;;;;;;;2.13;1.30;;;;;;;;;;5071789;28;20617;-60
2022/04/07 13:18:50;;;;;;;2.17;1.20;;;;;;;;;;5071873;28;20205;-60
2022/04/07 13:21:16;;;;;;;2.43;1.50;;;;;;;;;;5072083;28;20227;-58
2022/04/07 13:23:42;;;;;;;1.63;1.20;;;;;;;;;;5071927;28;20243;-59
2022/04/07 13:26:08;;;;;;;3.20;1.30;;;;;;;;;;5071852;28;20261;-60
2022/04/07 13:28:34;;;;;;;1.20;1.00;;;;;;;;;;5071854;28;20204;-61
2022/04/07 13:31:02;;;;;;;3.60;1.20;;;;;;;;;;5071922;28;20196;-60
2022/04/07 13:33:30;;;;;;;2.77;1.30;;;;;;;;;;5071964;28;20252;-60
2022/04/07 13:35:56;;;;;;;3.37;1.40;;;;;;;;;;5071843;28;20200;-60
2022/04/07 13:38:22;;;;;;;7.00;2.03;;;;;;;;;;5071849;28;20215;-59
2022/04/07 13:40:49;;;;;;;3.37;1.70;;;;;;;;;;5071726;28;20684;-60
2022/04/07 13:43:16;;;;;;;2.70;1.80;;;;;;;;;;5071845;28;20654;-60
2022/04/07 13:45:44;;;;;;;3.67;1.40;;;;;;;;;;5071591;28;20255;-61
2022/04/07 13:48:11;;;;;;;4.20;3.40;;;;;;;;;;5075099;28;20619;-60
2022/04/07 13:50:38;;;;;;;2.73;1.50;;;;;;;;;;5075809;28;20264;-59
2022/04/07 13:53:04;;;;;;;5.60;1.70;;;;;;;;;;5075662;28;20199;-59
2022/04/07 13:55:32;;;;;;;3.13;1.50;;;;;;;;;;5075977;28;20208;-59
2022/04/07 13:58:00;;;;;;;2.97;1.57;;;;;;;;;;5075637;28;20305;-59
2022/04/07 14:00:27;;;;;;;4.27;1.40;;;;;;;;;;5075494;28;20698;-61
2022/04/07 14:02:53;;;;;;;4.07;1.40;;;;;;;;;;5075299;28;20350;-61
2022/04/07 14:05:19;;;;;;;5.73;1.80;;;;;;;;;;5075417;28;20234;-60
2022/04/07 14:07:46;;;;;;;6.03;1.80;;;;;;;;;;5075147;28;20704;-58
2022/04/07 14:10:14;;;;;;;5.83;1.70;;;;;;;;;;5075548;28;20204;-60
2022/04/07 14:12:40;;;;;;;4.30;1.70;;;;;;;;;;5075243;28;20203;-59
2022/04/07 14:15:07;;;;;;;4.23;1.70;;;;;;;;;;5075361;28;20199;-59
2022/04/07 14:17:33;;;;;;;3.07;1.60;;;;;;;;;;5075324;28;20196;-59
2022/04/07 14:19:59;;;;;;;5.53;1.67;;;;;;;;;;5075149;28;20601;-58
2022/04/07 14:22:25;;;;;;;4.17;1.80;;;;;;;;;;5074943;28;20816;-59
2022/04/07 14:24:53;;;;;;;5.10;1.70;;;;;;;;;;5074632;28;20226;-59
2022/04/07 14:27:19;;;;;;;4.53;1.87;;;;;;;;;;5074574;28;20716;-57
2022/04/07 14:29:46;;;;;;;5.33;2.00;;;;;;;;;;5074771;28;20274;-58
2022/04/07 14:32:12;;;;;;;4.63;1.67;;;;;;;;;;5074494;28;20558;-59
2022/04/07 14:34:38;;;;;;;3.33;1.90;;;;;;;;;;5074553;28;20207;-59
2022/04/07 14:37:05;;;;;;;3.47;1.87;;;;;;;;;;5074227;28;20206;-58
2022/04/07 14:39:31;;;;;;;5.53;2.27;;;;;;;;;;5074532;28;20236;-61
2022/04/07 14:41:58;;;;;;;6.33;1.90;;;;;;;;;;5074436;28;20691;-59
2022/04/07 14:44:24;;;;;;;6.80;1.87;;;;;;;;;;5073111;28;20200;-59